Time;durP1;ratioP1;P1;durP2;ratioP2;P2;SDS_P1;SDS_P2;PMS_P1;PMS_P2;Temp;Humidity;BMP_temperature;BMP_pressure;BME280_temperature;BME280_humidity;BME280_pressure;Samples;Min_cycle;Max_cycle;Signal;HPM_P1;HPM_P2
2023/09/11 00:02:07;;;;;;;18.23;15.25;;;19.60;99.90;;;;;;4852748;29;20049;-91
2023/09/11 00:04:33;;;;;;;17.35;14.13;;;19.60;99.90;;;;;;4852836;29;20041;-92
2023/09/11 00:07:00;;;;;;;15.82;14.32;;;19.60;99.90;;;;;;4857437;29;20040;-92
2023/09/11 00:09:26;;;;;;;17.05;14.68;;;19.60;99.90;;;;;;4850128;29;20124;-93
2023/09/11 00:11:51;;;;;;;17.95;16.05;;;19.50;99.90;;;;;;4854704;29;20159;-93
2023/09/11 00:14:17;;;;;;;17.00;15.32;;;19.60;99.90;;;;;;4861299;29;20048;-94
2023/09/11 00:16:43;;;;;;;16.55;14.95;;;19.50;99.90;;;;;;4833689;29;20044;-92
2023/09/11 00:19:11;;;;;;;16.88;15.18;;;19.50;99.90;;;;;;4850529;29;20048;-93
2023/09/11 00:21:37;;;;;;;17.98;14.57;;;19.50;99.90;;;;;;4864156;29;20079;-92
2023/09/11 00:24:04;;;;;;;16.40;14.55;;;19.50;99.90;;;;;;4841514;29;20045;-91
2023/09/11 00:26:29;;;;;;;17.17;14.60;;;19.40;99.90;;;;;;4835765;29;20064;-92
2023/09/11 00:28:55;;;;;;;18.13;14.85;;;19.50;99.90;;;;;;4867036;29;20041;-93
2023/09/11 00:31:21;;;;;;;19.50;15.45;;;19.40;99.90;;;;;;4864596;29;20049;-93
2023/09/11 00:33:47;;;;;;;17.17;15.18;;;19.40;99.90;;;;;;4866705;29;20404;-93
2023/09/11 00:36:12;;;;;;;16.35;14.60;;;19.40;99.90;;;;;;4858630;29;20052;-93
2023/09/11 00:38:38;;;;;;;19.83;15.00;;;19.40;99.90;;;;;;4866200;29;20500;-92
2023/09/11 00:41:04;;;;;;;16.25;14.50;;;19.40;99.90;;;;;;4828803;29;20049;-93
2023/09/11 00:43:29;;;;;;;15.35;13.85;;;19.40;99.90;;;;;;4835926;29;20508;-93
2023/09/11 00:45:56;;;;;;;15.52;13.98;;;19.40;99.90;;;;;;4866905;29;20103;-93
2023/09/11 00:48:22;;;;;;;20.10;14.48;;;19.40;99.90;;;;;;4882851;29;20077;-93
2023/09/11 00:50:49;;;;;;;17.63;14.13;;;19.40;99.90;;;;;;4866088;29;20511;-93
2023/09/11 00:53:15;;;;;;;14.60;13.23;;;19.40;99.90;;;;;;4853575;29;20484;-92
2023/09/11 00:55:44;;;;;;;15.60;13.07;;;19.40;99.90;;;;;;4871277;29;20049;-90
2023/09/11 00:58:10;;;;;;;16.42;14.65;;;19.30;99.90;;;;;;4826946;29;20052;-94
2023/09/11 01:00:36;;;;;;;15.45;13.85;;;19.30;99.90;;;;;;4854515;29;20095;-93
2023/09/11 01:03:02;;;;;;;16.17;14.50;;;19.30;99.90;;;;;;4881406;29;20463;-93
2023/09/11 01:05:30;;;;;;;18.02;14.43;;;19.30;99.90;;;;;;4857727;29;20047;-93
2023/09/11 01:07:55;;;;;;;16.02;14.38;;;19.30;99.90;;;;;;4850782;29;20040;-93
2023/09/11 01:10:21;;;;;;;17.33;14.65;;;19.30;99.90;;;;;;4879578;29;20037;-93
2023/09/11 01:12:47;;;;;;;16.00;14.32;;;19.30;99.90;;;;;;4851051;29;20117;-93
2023/09/11 01:15:13;;;;;;;18.23;14.38;;;19.30;99.90;;;;;;4860207;29;20404;-93
2023/09/11 01:17:49;;;;;;;15.98;14.32;;;19.20;99.90;;;;;;4835290;29;20040;-92
2023/09/11 01:20:42;;;;;;;18.35;14.63;;;19.30;99.90;;;;;;4870999;29;20453;-92
2023/09/11 01:23:39;;;;;;;16.85;14.48;;;19.20;99.90;;;;;;4871385;29;20076;-91
2023/09/11 01:26:38;;;;;;;16.20;13.63;;;19.20;99.90;;;;;;4872558;29;20044;-91
2023/09/11 01:29:09;;;;;;;14.32;12.82;;;19.20;99.90;;;;;;4862278;29;20040;-91
2023/09/11 01:31:36;;;;;;;16.80;13.18;;;19.20;99.90;;;;;;4864761;29;20048;-89
2023/09/11 01:34:04;;;;;;;15.27;13.68;;;19.20;99.90;;;;;;4875405;29;20104;-92
2023/09/11 01:36:30;;;;;;;16.20;13.98;;;19.20;99.90;;;;;;4864259;29;20065;-92
2023/09/11 01:38:56;;;;;;;15.70;13.45;;;19.10;99.90;;;;;;4850462;29;20177;-92
2023/09/11 01:41:37;;;;;;;15.07;13.57;;;19.10;99.90;;;;;;4834594;29;20053;-92
2023/09/11 01:44:18;;;;;;;14.05;12.65;;;19.10;99.90;;;;;;4850176;29;20092;-92
2023/09/11 01:46:46;;;;;;;15.02;13.43;;;19.00;99.90;;;;;;4864954;29;20033;-92
2023/09/11 01:49:14;;;;;;;15.25;13.68;;;19.00;99.90;;;;;;4857737;29;20044;-92
2023/09/11 01:51:41;;;;;;;15.45;13.30;;;19.00;99.90;;;;;;4864314;29;20140;-92
2023/09/11 01:54:08;;;;;;;16.33;13.07;;;19.00;99.90;;;;;;4850305;29;20113;-93
2023/09/11 01:56:35;;;;;;;16.05;12.60;;;19.00;99.90;;;;;;4836324;29;20091;-92
2023/09/11 01:59:02;;;;;;;16.43;12.57;;;19.00;99.90;;;;;;4846077;29;20048;-91
2023/09/11 02:01:27;;;;;;;14.75;13.25;;;18.90;99.90;;;;;;4851532;29;20045;-93
2023/09/11 02:03:53;;;;;;;13.70;12.38;;;18.90;99.90;;;;;;4847524;29;20052;-93
2023/09/11 02:06:19;;;;;;;17.15;13.20;;;18.90;99.90;;;;;;4860389;29;20040;-93
2023/09/11 02:08:45;;;;;;;17.15;13.35;;;18.90;99.90;;;;;;4865352;29;20120;-93
2023/09/11 02:11:10;;;;;;;14.10;11.98;;;18.80;99.90;;;;;;4847492;29;20056;-91
2023/09/11 02:13:36;;;;;;;16.40;13.27;;;18.80;99.90;;;;;;4834685;29;20399;-91
2023/09/11 02:16:02;;;;;;;13.65;11.20;;;18.80;99.90;;;;;;4829504;29;20041;-92
2023/09/11 02:18:28;;;;;;;13.68;11.68;;;18.80;99.90;;;;;;4846223;29;20465;-91
2023/09/11 02:20:54;;;;;;;16.20;12.05;;;18.90;99.90;;;;;;4844306;29;20446;-94
2023/09/11 02:23:20;;;;;;;17.55;12.38;;;18.90;99.90;;;;;;4837893;29;20087;-93
2023/09/11 02:25:48;;;;;;;14.60;12.30;;;18.90;99.90;;;;;;4848406;29;20040;-94
2023/09/11 02:28:14;;;;;;;16.05;12.20;;;19.00;99.90;;;;;;4849853;29;20048;-92
2023/09/11 02:30:40;;;;;;;13.73;11.77;;;19.00;99.90;;;;;;4849237;29;20040;-93
2023/09/11 02:33:06;;;;;;;14.63;12.27;;;19.10;99.90;;;;;;4849084;29;20385;-92
2023/09/11 02:35:31;;;;;;;12.52;11.23;;;19.10;99.90;;;;;;4849626;29;20473;-93
2023/09/11 02:37:58;;;;;;;14.48;11.77;;;19.10;99.90;;;;;;4848726;29;20077;-94
2023/09/11 02:40:24;;;;;;;14.55;11.60;;;19.20;99.90;;;;;;4851409;29;20052;-93
2023/09/11 02:42:50;;;;;;;13.15;11.60;;;19.20;99.90;;;;;;4836934;29;20131;-94
2023/09/11 02:45:15;;;;;;;19.23;12.20;;;19.20;99.90;;;;;;4834806;29;20064;-90
2023/09/11 02:47:41;;;;;;;15.20;11.80;;;19.20;99.90;;;;;;4848364;29;20116;-93
2023/09/11 02:50:07;;;;;;;17.40;11.00;;;19.30;99.90;;;;;;4844881;29;20065;-93
2023/09/11 02:52:33;;;;;;;12.93;10.20;;;19.30;99.90;;;;;;4848381;29;20044;-93
2023/09/11 02:54:59;;;;;;;16.63;10.88;;;19.30;99.90;;;;;;4849468;29;20123;-93
2023/09/11 02:57:25;;;;;;;11.27;10.05;;;19.30;99.90;;;;;;4833570;29;20135;-92
2023/09/11 02:59:55;;;;;;;13.90;10.38;;;19.30;99.90;;;;;;4849245;29;20048;-92
2023/09/11 03:02:21;;;;;;;14.45;10.75;;;19.30;99.90;;;;;;4830579;29;20475;-92
2023/09/11 03:04:51;;;;;;;16.45;10.70;;;19.30;99.90;;;;;;4832799;29;20055;-94
2023/09/11 03:07:20;;;;;;;12.68;10.98;;;19.30;99.90;;;;;;4863694;29;20057;-94
2023/09/11 03:09:46;;;;;;;17.83;13.23;;;19.30;99.90;;;;;;4834277;29;20048;-94
2023/09/11 03:12:12;;;;;;;13.55;11.40;;;19.30;99.90;;;;;;4876640;29;20047;-94
2023/09/11 03:14:39;;;;;;;11.35;10.15;;;19.30;99.90;;;;;;4848301;29;20048;-93
2023/09/11 03:17:05;;;;;;;14.88;11.38;;;19.30;99.90;;;;;;4876698;29;20068;-93
2023/09/11 03:19:34;;;;;;;17.80;11.50;;;19.30;99.90;;;;;;4863138;29;20076;-93
2023/09/11 03:21:59;;;;;;;16.48;10.90;;;19.30;99.90;;;;;;4848946;29;20045;-92
2023/09/11 03:24:25;;;;;;;14.57;11.35;;;19.30;99.90;;;;;;4858261;29;20044;-93
2023/09/11 03:26:51;;;;;;;14.55;10.98;;;19.30;99.90;;;;;;4833305;29;20040;-93
2023/09/11 03:29:17;;;;;;;13.63;10.25;;;19.30;99.90;;;;;;4833840;29;20479;-93
2023/09/11 03:31:43;;;;;;;15.70;10.93;;;19.30;99.90;;;;;;4876175;29;20097;-93
2023/09/11 03:34:09;;;;;;;14.82;11.52;;;19.30;99.90;;;;;;4858135;29;20087;-91
2023/09/11 03:36:34;;;;;;;12.77;10.35;;;19.30;99.90;;;;;;4862621;29;20137;-93
2023/09/11 03:39:00;;;;;;;14.68;10.60;;;19.30;99.90;;;;;;4831938;29;20059;-93
2023/09/11 03:41:26;;;;;;;12.07;10.23;;;19.20;99.90;;;;;;4833598;29;20051;-93
2023/09/11 03:43:52;;;;;;;15.25;10.82;;;19.20;99.90;;;;;;4835137;29;20091;-94
2023/09/11 03:46:17;;;;;;;15.40;11.50;;;19.30;99.90;;;;;;4832712;29;20539;-93
2023/09/11 03:48:43;;;;;;;11.90;10.65;;;19.20;99.90;;;;;;4856469;29;20045;-93
2023/09/11 03:51:09;;;;;;;14.75;11.23;;;19.20;99.90;;;;;;4845483;29;20053;-93
2023/09/11 03:53:35;;;;;;;14.07;10.95;;;19.20;99.90;;;;;;4846046;29;20052;-91
2023/09/11 03:56:02;;;;;;;12.23;10.82;;;19.20;99.90;;;;;;4833498;29;20052;-92
2023/09/11 03:58:27;;;;;;;14.98;11.18;;;19.20;99.90;;;;;;4833163;29;20048;-93
2023/09/11 04:00:54;;;;;;;13.60;11.52;;;19.10;99.90;;;;;;4849212;29;20036;-93
2023/09/11 04:03:20;;;;;;;17.15;11.82;;;19.10;99.90;;;;;;4851353;29;20542;-92
2023/09/11 04:05:45;;;;;;;14.82;11.60;;;19.10;99.90;;;;;;4873154;29;20048;-93
2023/09/11 04:08:12;;;;;;;14.23;10.73;;;19.10;99.90;;;;;;4863719;29;20128;-92
2023/09/11 04:10:37;;;;;;;15.02;11.07;;;19.00;99.90;;;;;;4854452;29;20056;-94
2023/09/11 04:13:03;;;;;;;17.08;10.50;;;19.00;99.90;;;;;;4860577;29;20101;-92
2023/09/11 04:15:29;;;;;;;15.65;10.73;;;19.00;99.90;;;;;;4851988;29;20059;-93
2023/09/11 04:17:56;;;;;;;15.75;11.10;;;19.00;99.90;;;;;;4861604;29;20087;-92
2023/09/11 04:20:21;;;;;;;15.02;11.23;;;19.00;99.90;;;;;;4835854;29;20056;-92
2023/09/11 04:22:47;;;;;;;13.55;11.05;;;18.90;99.90;;;;;;4834346;29;20052;-94
2023/09/11 04:25:13;;;;;;;13.45;11.30;;;19.00;99.90;;;;;;4835779;29;20037;-92
2023/09/11 04:27:38;;;;;;;16.27;11.88;;;19.00;99.90;;;;;;4833158;29;20040;-93
2023/09/11 04:30:06;;;;;;;13.15;10.80;;;18.90;99.90;;;;;;4866723;29;20063;-91
2023/09/11 04:32:32;;;;;;;18.60;11.60;;;18.90;99.90;;;;;;4854236;29;20049;-92
2023/09/11 04:34:58;;;;;;;16.98;12.25;;;18.90;99.90;;;;;;4833988;29;20770;-93
2023/09/11 04:37:24;;;;;;;18.27;11.75;;;18.80;99.90;;;;;;4834514;29;20049;-93
2023/09/11 04:39:49;;;;;;;14.30;11.60;;;18.80;99.90;;;;;;4834728;29;20082;-94
2023/09/11 04:42:15;;;;;;;15.57;11.32;;;18.80;99.90;;;;;;4848447;29;20040;-93
2023/09/11 04:44:41;;;;;;;18.30;11.60;;;18.70;99.90;;;;;;4849389;29;20094;-92
2023/09/11 04:47:08;;;;;;;18.13;11.57;;;18.70;99.90;;;;;;4838412;29;20137;-93
2023/09/11 04:49:34;;;;;;;14.77;12.00;;;18.70;99.90;;;;;;4863320;29;20045;-93
2023/09/11 04:51:59;;;;;;;18.25;11.15;;;18.70;99.90;;;;;;4857065;29;20079;-93
2023/09/11 04:54:25;;;;;;;17.05;11.30;;;18.70;99.90;;;;;;4838298;29;20072;-93
2023/09/11 04:56:51;;;;;;;15.07;11.35;;;18.70;99.90;;;;;;4849235;29;20045;-92
2023/09/11 04:59:16;;;;;;;19.98;12.07;;;18.70;99.90;;;;;;4849141;29;20049;-91
2023/09/11 05:01:42;;;;;;;16.92;11.48;;;18.70;99.90;;;;;;4847936;29;20044;-92
2023/09/11 05:04:08;;;;;;;17.17;10.57;;;18.60;99.90;;;;;;4850933;29;20049;-91
2023/09/11 05:06:34;;;;;;;13.38;10.85;;;18.60;99.90;;;;;;4853073;29;20041;-93
2023/09/11 05:09:00;;;;;;;12.25;10.63;;;18.60;99.90;;;;;;4853504;29;20044;-93
2023/09/11 05:11:25;;;;;;;18.90;11.20;;;18.60;99.90;;;;;;4850098;29;20036;-94
2023/09/11 05:13:51;;;;;;;13.57;11.20;;;18.60;99.90;;;;;;4850116;29;20101;-94
2023/09/11 05:16:18;;;;;;;14.85;11.15;;;18.70;99.90;;;;;;4836326;29;20149;-94
2023/09/11 05:18:44;;;;;;;13.90;10.88;;;18.70;99.90;;;;;;4841832;29;20571;-94
2023/09/11 05:21:09;;;;;;;15.25;11.00;;;18.70;99.90;;;;;;4852143;29;20127;-93
2023/09/11 05:23:35;;;;;;;12.88;10.93;;;18.80;99.90;;;;;;4826935;29;20112;-93
2023/09/11 05:26:07;;;;;;;15.70;11.23;;;18.80;99.90;;;;;;4838945;29;20089;-93
2023/09/11 05:28:32;;;;;;;16.00;10.60;;;18.90;99.90;;;;;;4862962;29;20036;-95
2023/09/11 05:30:58;;;;;;;16.70;10.45;;;18.90;99.90;;;;;;4835844;29;20040;-91
2023/09/11 05:33:24;;;;;;;15.18;11.50;;;18.90;99.90;;;;;;4840323;29;20045;-92
2023/09/11 05:35:50;;;;;;;15.02;10.68;;;19.00;99.90;;;;;;4831927;29;20392;-92
2023/09/11 05:38:16;;;;;;;12.73;10.75;;;19.10;99.90;;;;;;4857840;29;20041;-92
2023/09/11 05:40:41;;;;;;;15.25;11.18;;;19.10;99.90;;;;;;4840759;29;20286;-91
2023/09/11 05:43:07;;;;;;;17.02;10.98;;;19.10;99.90;;;;;;4834840;29;20517;-92
2023/09/11 05:45:33;;;;;;;13.23;9.82;;;19.20;99.90;;;;;;4846880;29;20115;-92
2023/09/11 05:47:59;;;;;;;15.02;10.98;;;19.30;99.90;;;;;;4834453;29;20098;-93
2023/09/11 05:50:24;;;;;;;11.77;9.88;;;19.30;99.90;;;;;;4854200;29;20174;-91
2023/09/11 05:52:50;;;;;;;15.05;10.57;;;19.40;99.90;;;;;;4853947;29;20044;-90
2023/09/11 05:55:16;;;;;;;13.77;10.90;;;19.40;99.90;;;;;;4850041;29;20483;-91
2023/09/11 05:57:42;;;;;;;12.65;10.05;;;19.50;99.90;;;;;;4833220;29;20045;-95
2023/09/11 06:00:12;;;;;;;15.43;10.60;;;19.60;99.90;;;;;;4864230;29;20104;-91
2023/09/11 06:02:40;;;;;;;16.98;10.20;;;19.70;99.90;;;;;;4855200;29;20037;-93
2023/09/11 06:05:09;;;;;;;16.58;10.40;;;19.80;99.90;;;;;;4852240;29;20045;-93
2023/09/11 06:07:35;;;;;;;14.60;10.07;;;19.90;99.90;;;;;;4870650;29;20083;-95
2023/09/11 06:10:01;;;;;;;14.32;10.23;;;20.00;99.90;;;;;;4857006;29;20044;-94
2023/09/11 06:12:29;;;;;;;13.90;9.88;;;20.10;99.90;;;;;;4858604;29;20116;-96
2023/09/11 06:14:55;;;;;;;16.27;9.68;;;20.30;99.90;;;;;;4854678;29;20045;-93
2023/09/11 06:17:21;;;;;;;13.55;9.75;;;20.40;99.90;;;;;;4868896;29;20048;-95
2023/09/11 06:19:47;;;;;;;12.93;9.90;;;20.50;99.90;;;;;;4869434;29;20511;-94
2023/09/11 06:22:13;;;;;;;14.45;9.15;;;20.60;99.90;;;;;;4865933;29;20051;-95
2023/09/11 06:24:39;;;;;;;14.18;9.85;;;20.70;99.90;;;;;;4838891;29;20075;-96
2023/09/11 06:27:39;;;;;;;14.93;10.30;;;20.50;99.90;;;;;;4838424;29;20496;-95
2023/09/11 06:30:06;;;;;;;13.75;9.77;;;20.50;99.90;;;;;;4854614;29;20049;-94
2023/09/11 06:32:33;;;;;;;13.18;9.85;;;20.90;99.90;;;;;;4868035;29;20059;-92
2023/09/11 06:35:01;;;;;;;12.73;9.77;;;21.10;99.90;;;;;;4884230;29;20059;-91
2023/09/11 06:37:29;;;;;;;16.30;8.93;;;21.10;99.90;;;;;;4870960;29;20048;-95
2023/09/11 06:39:56;;;;;;;14.52;9.98;;;21.10;99.90;;;;;;4872242;29;20054;-92
2023/09/11 06:42:23;;;;;;;12.25;9.10;;;21.10;99.90;;;;;;4849123;29;20251;-94
2023/09/11 06:44:53;;;;;;;13.13;8.98;;;21.10;99.90;;;;;;4867673;29;20437;-94
2023/09/11 06:47:19;;;;;;;15.63;9.73;;;21.50;99.90;;;;;;4836855;29;20105;-96
2023/09/11 06:49:45;;;;;;;14.80;9.37;;;21.80;99.90;;;;;;4834079;29;20045;-95
2023/09/11 06:52:10;;;;;;;16.38;9.90;;;21.90;99.90;;;;;;4867460;29;20462;-94
2023/09/11 06:54:36;;;;;;;9.80;8.18;;;22.00;99.90;;;;;;4851247;29;20048;-94
2023/09/11 06:57:04;;;;;;;;;;;22.20;99.90;;;;;;4839291;29;20083;-95
2023/09/11 06:59:29;;;;;;;13.10;8.95;;;22.40;99.90;;;;;;4850365;29;19923;-91
2023/09/11 07:01:55;;;;;;;14.27;9.45;;;22.40;99.90;;;;;;4849642;29;20055;-91
2023/09/11 07:04:21;;;;;;;12.98;9.65;;;22.50;99.90;;;;;;4833806;29;20045;-95
2023/09/11 07:06:48;;;;;;;11.75;8.80;;;22.50;99.90;;;;;;4849405;29;20036;-96
2023/09/11 07:09:17;;;;;;;12.70;8.73;;;22.60;99.90;;;;;;4853151;29;20077;-95
2023/09/11 07:11:43;;;;;;;14.23;8.98;;;22.70;99.90;;;;;;4882315;29;20515;-92
2023/09/11 07:14:12;;;;;;;15.02;9.18;;;22.70;99.90;;;;;;4850013;29;20045;-93
2023/09/11 07:16:39;;;;;;;13.75;9.35;;;22.80;99.90;;;;;;4851253;29;20441;-90
2023/09/11 07:19:04;;;;;;;12.30;9.00;;;23.00;99.90;;;;;;4850315;29;20051;-94
2023/09/11 07:21:30;;;;;;;11.73;8.83;;;23.00;99.90;;;;;;4819762;29;20688;-96
2023/09/11 07:23:56;;;;;;;12.70;8.93;;;23.20;99.90;;;;;;4855143;29;20125;-94
2023/09/11 07:26:22;;;;;;;9.17;7.50;;;23.40;99.90;;;;;;4861794;29;20069;-92
2023/09/11 07:29:02;;;;;;;10.40;7.33;;;23.70;99.90;;;;;;4833451;29;20037;-93
2023/09/11 07:31:29;;;;;;;14.07;7.82;;;24.10;99.90;;;;;;4856047;29;20049;-95
2023/09/11 07:33:56;;;;;;;12.32;7.35;;;24.70;99.90;;;;;;4869640;29;20045;-92
2023/09/11 07:36:22;;;;;;;13.80;6.77;;;25.60;99.90;;;;;;4852598;29;20045;-94
2023/09/11 07:38:48;;;;;;;13.83;7.00;;;26.40;99.90;;;;;;4836719;29;20135;-93
2023/09/11 07:41:16;;;;;;;9.73;7.30;;;26.90;99.90;;;;;;4871371;29;20049;-92
2023/09/11 07:43:49;;;;;;;9.93;6.38;;;26.90;99.90;;;;;;4872422;29;20051;-94
2023/09/11 07:46:22;;;;;;;10.80;7.05;;;26.60;99.90;;;;;;4858252;29;20556;-94
2023/09/11 07:48:50;;;;;;;10.85;6.43;;;26.50;99.90;;;;;;4859709;29;20103;-94
2023/09/11 07:51:17;;;;;;;11.95;6.90;;;26.50;99.90;;;;;;4872879;29;20452;-94
2023/09/11 07:53:44;;;;;;;9.05;5.78;;;27.10;99.90;;;;;;4875818;29;20056;-94
2023/09/11 07:56:10;;;;;;;11.00;6.45;;;27.60;99.90;;;;;;4855951;29;20053;-95
2023/09/11 07:58:36;;;;;;;;;;;28.30;99.90;;;;;;4884151;29;20090;-95
2023/09/11 08:01:03;;;;;;;13.20;5.72;;;29.20;99.90;;;;;;4904867;29;19920;-95
2023/09/11 08:03:31;;;;;;;;;;;29.40;99.90;;;;;;4861459;29;20051;-94
2023/09/11 08:06:01;;;;;;;14.55;6.60;;;29.90;99.90;;;;;;4871497;29;19923;-95
2023/09/11 08:08:27;;;;;;;12.23;5.30;;;30.50;99.90;;;;;;4852927;29;20051;-96
2023/09/11 08:10:54;;;;;;;10.15;4.95;;;31.00;99.90;;;;;;4838420;29;20040;-95
2023/09/11 08:13:20;;;;;;;9.07;5.03;;;31.40;99.90;;;;;;4825534;29;20048;-94
2023/09/11 08:15:46;;;;;;;9.40;5.47;;;31.50;99.90;;;;;;4846784;29;20131;-93
2023/09/11 08:18:12;;;;;;;12.43;6.85;;;31.50;99.90;;;;;;4872930;29;20077;-95
2023/09/11 08:20:43;;;;;;;9.05;5.47;;;31.60;99.90;;;;;;4841860;29;20131;-94
2023/09/11 08:23:12;;;;;;;10.32;5.20;;;31.60;99.90;;;;;;4889978;29;20051;-96
2023/09/11 08:25:37;;;;;;;9.73;5.20;;;31.90;99.90;;;;;;4878606;29;20044;-94
2023/09/11 08:28:03;;;;;;;12.07;5.32;;;32.10;99.90;;;;;;4867726;29;20040;-96
2023/09/11 08:30:29;;;;;;;9.93;4.47;;;32.20;99.90;;;;;;4854524;29;20401;-92
2023/09/11 08:32:55;;;;;;;8.20;4.73;;;32.30;99.90;;;;;;4866251;29;20039;-95
2023/09/11 08:35:21;;;;;;;8.70;4.73;;;32.10;99.90;;;;;;4880381;29;20468;-95
2023/09/11 08:37:46;;;;;;;11.98;4.50;;;31.90;99.90;;;;;;4843962;29;20047;-95
2023/09/11 08:40:12;;;;;;;5.47;4.07;;;31.70;99.90;;;;;;4873695;29;20056;-94
2023/09/11 08:42:38;;;;;;;6.43;4.07;;;31.50;99.90;;;;;;4870265;29;20037;-91
2023/09/11 08:45:04;;;;;;;9.90;4.50;;;31.40;99.90;;;;;;4853569;29;20079;-92
2023/09/11 08:47:31;;;;;;;8.13;3.95;;;31.10;99.90;;;;;;4854830;29;20036;-95
2023/09/11 08:50:05;;;;;;;9.65;4.47;;;30.90;99.90;;;;;;4873768;29;20047;-91
2023/09/11 08:52:33;;;;;;;8.25;3.88;;;30.60;99.90;;;;;;4877536;29;20070;-93
2023/09/11 08:55:06;;;;;;;7.07;4.03;;;30.30;99.90;;;;;;4848138;29;20055;-96
2023/09/11 08:57:37;;;;;;;7.80;4.30;;;30.10;99.90;;;;;;4858139;29;20523;-95
2023/09/11 09:00:08;;;;;;;8.38;4.00;;;29.90;99.90;;;;;;4870522;29;20459;-96
2023/09/11 09:02:35;;;;;;;11.25;4.30;;;29.90;99.90;;;;;;4868392;29;20072;-92
2023/09/11 09:05:06;;;;;;;6.88;3.78;;;29.80;99.90;;;;;;4853927;29;20052;-91
2023/09/11 09:07:32;;;;;;;5.30;3.60;;;29.70;99.90;;;;;;4876047;29;20044;-93
2023/09/11 09:09:59;;;;;;;6.68;3.70;;;29.70;99.90;;;;;;4883430;29;20072;-95
2023/09/11 09:12:26;;;;;;;10.10;3.25;;;29.70;99.90;;;;;;4858819;29;20068;-93
2023/09/11 09:14:53;;;;;;;10.65;3.92;;;29.70;99.90;;;;;;4849450;29;20511;-94
2023/09/11 09:17:18;;;;;;;5.85;3.20;;;29.70;99.90;;;;;;4836525;29;20044;-92
2023/09/11 09:19:44;;;;;;;9.15;3.30;;;29.70;99.90;;;;;;4850098;29;20071;-93
2023/09/11 09:22:12;;;;;;;6.85;3.45;;;29.70;99.90;;;;;;4819922;29;20059;-95
2023/09/11 09:24:49;;;;;;;8.70;3.50;;;29.80;99.90;;;;;;4851597;29;20048;-92
2023/09/11 09:27:15;;;;;;;7.15;3.47;;;29.80;99.90;;;;;;4866269;29;20055;-92
2023/09/11 09:29:41;;;;;;;8.82;3.47;;;29.90;99.90;;;;;;4852686;29;20048;-92
2023/09/11 09:32:08;;;;;;;7.93;3.50;;;29.90;99.90;;;;;;4851928;29;20101;-96
2023/09/11 09:34:37;;;;;;;7.80;3.72;;;29.80;99.90;;;;;;4866846;29;20135;-95
2023/09/11 09:37:03;;;;;;;7.65;3.35;;;29.80;99.90;;;;;;4866411;29;20127;-90
2023/09/11 09:39:30;;;;;;;5.35;3.67;;;29.80;99.90;;;;;;4863528;29;20052;-92
2023/09/11 09:42:02;;;;;;;7.68;3.80;;;29.80;99.90;;;;;;4841986;29;20047;-92
2023/09/11 09:44:52;;;;;;;5.53;3.67;;;29.90;99.90;;;;;;4850496;29;20057;-93
2023/09/11 09:47:19;;;;;;;8.15;3.90;;;29.90;99.90;;;;;;4852567;29;20037;-93
2023/09/11 09:49:52;;;;;;;5.57;3.38;;;29.90;99.90;;;;;;4869853;29;20040;-92
2023/09/11 09:52:20;;;;;;;13.32;4.07;;;30.00;99.90;;;;;;4865605;29;20057;-91
2023/09/11 09:54:49;;;;;;;10.70;3.92;;;30.10;99.90;;;;;;4866349;29;20075;-93
2023/09/11 09:57:17;;;;;;;6.53;3.72;;;30.10;99.90;;;;;;4882144;29;20366;-92
2023/09/11 09:59:49;;;;;;;8.40;3.92;;;30.10;99.90;;;;;;4875178;29;20048;-94
2023/09/11 10:02:23;;;;;;;9.02;4.10;;;30.20;99.90;;;;;;4890259;29;20496;-91
2023/09/11 10:04:54;;;;;;;8.25;3.75;;;30.20;99.90;;;;;;4865389;29;20045;-89
2023/09/11 10:07:43;;;;;;;6.55;3.70;;;30.20;99.90;;;;;;4854940;29;20045;-93
2023/09/11 10:10:18;;;;;;;7.85;3.50;;;30.40;99.90;;;;;;4831793;29;20041;-93
2023/09/11 10:12:44;;;;;;;6.07;3.75;;;30.30;99.90;;;;;;4855067;29;20047;-94
2023/09/11 10:15:10;;;;;;;6.57;3.80;;;30.30;99.90;;;;;;4846159;29;20112;-92
2023/09/11 10:17:37;;;;;;;6.95;3.85;;;30.30;99.90;;;;;;4860205;29;20074;-95
2023/09/11 10:20:03;;;;;;;8.95;3.88;;;30.30;99.90;;;;;;4857283;29;20076;-96
2023/09/11 10:22:29;;;;;;;8.77;3.67;;;30.40;99.90;;;;;;4851157;29;20084;-95
2023/09/11 10:24:55;;;;;;;6.28;3.72;;;30.40;99.90;;;;;;4850654;29;20110;-91
2023/09/11 10:27:21;;;;;;;7.07;3.67;;;30.40;99.90;;;;;;4850035;29;20040;-93
2023/09/11 10:30:00;;;;;;;7.20;3.70;;;30.40;99.90;;;;;;4849428;29;20527;-93
2023/09/11 10:32:32;;;;;;;5.88;3.55;;;30.50;99.90;;;;;;4865917;29;20044;-91
2023/09/11 10:35:01;;;;;;;5.65;3.45;;;30.60;99.90;;;;;;4863742;29;20032;-95
2023/09/11 10:37:30;;;;;;;9.25;4.05;;;30.60;99.90;;;;;;4851476;29;20088;-93
2023/09/11 10:39:59;;;;;;;7.60;3.58;;;30.70;99.90;;;;;;4848794;29;20044;-93
2023/09/11 10:42:25;;;;;;;5.90;3.58;;;30.60;99.90;;;;;;4865647;29;20048;-95
2023/09/11 10:44:53;;;;;;;8.75;4.00;;;30.70;99.90;;;;;;4865990;29;20052;-96
2023/09/11 10:47:20;;;;;;;7.35;3.72;;;30.70;99.90;;;;;;4863418;29;20528;-96
2023/09/11 10:49:49;;;;;;;5.97;3.47;;;30.60;99.90;;;;;;4861220;29;20052;-94
2023/09/11 10:52:16;;;;;;;8.52;4.20;;;30.80;99.90;;;;;;4859991;29;20055;-92
2023/09/11 10:54:43;;;;;;;6.57;3.50;;;30.80;99.90;;;;;;4836113;29;20053;-93
2023/09/11 10:57:09;;;;;;;8.95;4.20;;;30.90;99.90;;;;;;4878924;29;20048;-95
2023/09/11 10:59:35;;;;;;;9.20;4.40;;;30.90;99.90;;;;;;4868454;29;20046;-94
2023/09/11 11:02:02;;;;;;;6.22;4.07;;;30.90;99.90;;;;;;4851421;29;20044;-96
2023/09/11 11:04:31;;;;;;;8.43;3.75;;;30.90;99.90;;;;;;4863283;29;20405;-95
2023/09/11 11:06:59;;;;;;;5.68;4.10;;;30.90;99.90;;;;;;4860714;29;20106;-90
2023/09/11 11:09:35;;;;;;;5.75;3.88;;;30.80;99.90;;;;;;4856256;29;20048;-93
2023/09/11 11:12:13;;;;;;;8.43;4.65;;;30.80;99.90;;;;;;4864973;29;20112;-96
2023/09/11 11:14:39;;;;;;;11.55;4.65;;;31.00;99.90;;;;;;4853007;29;20112;-93
2023/09/11 11:17:10;;;;;;;4.70;3.85;;;31.00;99.90;;;;;;4853401;29;20041;-94
2023/09/11 11:19:59;;;;;;;7.15;4.55;;;31.00;99.90;;;;;;4854622;29;20077;-93
2023/09/11 11:22:34;;;;;;;5.05;4.20;;;31.00;99.90;;;;;;4863768;29;20060;-95
2023/09/11 11:25:03;;;;;;;6.57;4.30;;;31.00;99.90;;;;;;4869189;29;20049;-92
2023/09/11 11:27:29;;;;;;;11.55;4.78;;;30.90;99.90;;;;;;4854282;29;20055;-94
2023/09/11 11:29:56;;;;;;;6.80;4.25;;;30.90;99.90;;;;;;4873218;29;20040;-93
2023/09/11 11:32:22;;;;;;;8.88;4.93;;;30.90;99.90;;;;;;4872260;29;20056;-95
2023/09/11 11:34:50;;;;;;;10.18;4.85;;;30.80;99.90;;;;;;4863337;29;20097;-90
2023/09/11 11:37:20;;;;;;;8.27;5.20;;;30.70;99.90;;;;;;4854396;29;20051;-96
2023/09/11 11:39:46;;;;;;;7.72;4.65;;;30.70;99.90;;;;;;4851800;29;20117;-94
2023/09/11 11:42:13;;;;;;;;;;;30.70;99.90;;;;;;4864494;29;20481;-95
2023/09/11 11:44:40;;;;;;;10.20;4.60;;;30.60;99.90;;;;;;4884653;29;19923;-92
2023/09/11 11:47:07;;;;;;;11.27;4.75;;;30.60;99.90;;;;;;4839618;29;20492;-94
2023/09/11 11:49:34;;;;;;;6.20;4.72;;;30.50;99.90;;;;;;4870306;29;20037;-93
2023/09/11 11:52:01;;;;;;;5.30;4.65;;;30.40;99.90;;;;;;4868380;29;20051;-92
2023/09/11 11:54:28;;;;;;;7.85;5.43;;;30.20;99.90;;;;;;4868871;29;20052;-93
2023/09/11 11:57:01;;;;;;;8.10;4.55;;;30.00;99.90;;;;;;4868908;29;20067;-94
2023/09/11 11:59:33;;;;;;;8.13;3.95;;;29.90;99.90;;;;;;4884346;29;20048;-94
2023/09/11 12:01:59;;;;;;;7.20;4.32;;;29.90;99.90;;;;;;4901501;29;20058;-91
2023/09/11 12:04:25;;;;;;;;;;;29.80;99.90;;;;;;4866406;29;20044;-95
2023/09/11 12:06:57;;;;;;;7.13;3.67;;;29.70;99.90;;;;;;4866538;29;19975;-94
2023/09/11 12:09:23;;;;;;;6.68;3.88;;;29.80;99.90;;;;;;4868606;29;20044;-93
2023/09/11 12:11:50;;;;;;;5.65;4.55;;;29.80;99.90;;;;;;4849806;29;20448;-93
2023/09/11 12:14:17;;;;;;;7.05;4.32;;;29.80;99.90;;;;;;4865840;29;20769;-94
2023/09/11 12:16:43;;;;;;;6.97;4.57;;;29.70;99.90;;;;;;4846881;29;20095;-90
2023/09/11 12:19:09;;;;;;;8.05;4.13;;;29.70;99.90;;;;;;4858591;29;20127;-92
2023/09/11 12:21:35;;;;;;;9.80;4.10;;;29.60;99.90;;;;;;4867596;29;20127;-91
2023/09/11 12:24:01;;;;;;;4.82;3.47;;;29.60;99.90;;;;;;4861328;29;20144;-93
2023/09/11 12:26:28;;;;;;;4.82;3.83;;;29.60;99.90;;;;;;4840053;29;20052;-93
2023/09/11 12:28:55;;;;;;;9.25;3.80;;;29.50;99.90;;;;;;4850171;29;20123;-95
2023/09/11 12:31:21;;;;;;;8.60;4.70;;;29.40;99.90;;;;;;4847843;29;20050;-95
2023/09/11 12:33:55;;;;;;;10.95;5.45;;;29.30;99.90;;;;;;4852070;29;20104;-94
2023/09/11 12:36:21;;;;;;;8.52;5.00;;;29.20;99.90;;;;;;4846893;29;20044;-93
2023/09/11 12:38:49;;;;;;;6.32;4.00;;;29.20;99.90;;;;;;4864756;29;20045;-93